createdAt,value
2019-04-26T00:00:35.448Z,70.12
2019-04-26T00:03:09.347Z,73.61
2019-04-26T00:05:39.094Z,75.17
2019-04-26T00:08:09.270Z,73.46
2019-04-26T00:10:52.856Z,74.09
2019-04-26T00:16:19.549Z,77.07
2019-04-26T00:18:49.106Z,75.24
2019-04-26T00:21:18.341Z,73.15
2019-04-26T00:23:47.327Z,73.17
2019-04-26T00:26:16.358Z,77.17
2019-04-26T00:28:44.986Z,79.39
2019-04-26T00:31:13.671Z,80.37
2019-04-26T00:33:42.320Z,81.02
2019-04-26T00:36:11.012Z,81.12
2019-04-26T00:38:40.390Z,80.51
2019-04-26T00:41:09.958Z,78.30
2019-04-26T00:43:38.671Z,76.66
2019-04-26T00:46:07.974Z,76.19
2019-04-26T00:48:38.275Z,76.75
2019-04-26T00:51:07.490Z,76.87
2019-04-26T00:53:37.566Z,77.16
2019-04-26T00:56:07.208Z,77.89
2019-04-26T00:58:35.872Z,77.20
2019-04-26T01:01:04.539Z,76.61
2019-04-26T01:03:33.148Z,76.05
2019-04-26T01:06:03.639Z,76.54
2019-04-26T01:08:32.301Z,79.05
2019-04-26T01:11:00.928Z,82.84
2019-04-26T01:13:29.751Z,84.86
2019-04-26T01:15:58.502Z,84.82
2019-04-26T01:18:27.253Z,83.08
2019-04-26T01:20:57.218Z,83.46
2019-04-26T01:23:28.224Z,82.92
2019-04-26T01:26:02.010Z,81.77
2019-04-26T01:28:39.813Z,80.50
2019-04-26T01:31:08.703Z,81.38
2019-04-26T01:33:38.905Z,80.48
2019-04-26T01:36:13.216Z,82.24
2019-04-26T01:38:38.759Z,83.16
2019-04-26T01:41:09.623Z,84.52
2019-04-26T01:43:40.320Z,87.13
2019-04-26T01:46:13.734Z,86.46
2019-04-26T01:49:06.002Z,84.92
2019-04-26T01:51:37.714Z,82.19
2019-04-26T01:54:07.331Z,81.35
2019-04-26T01:56:37.218Z,82.16
2019-04-26T01:59:08.153Z,83.82
2019-04-26T02:01:42.934Z,82.43
2019-04-26T02:04:12.395Z,82.49
2019-04-26T02:06:41.079Z,83.17
2019-04-26T02:09:10.914Z,85.08
2019-04-26T02:11:40.687Z,84.93
2019-04-26T02:14:09.403Z,84.61
2019-04-26T02:16:38.754Z,86.49
2019-04-26T02:19:07.402Z,87.95
2019-04-26T02:21:37.617Z,88.79
2019-04-26T02:24:10.862Z,88.83
2019-04-26T02:26:42.507Z,84.58
2019-04-26T02:29:20.414Z,83.64
2019-04-26T02:31:54.177Z,85.43
2019-04-26T02:34:22.949Z,84.82
2019-04-26T02:36:57.742Z,84.79
2019-04-26T02:39:34.091Z,85.71
2019-04-26T02:42:05.149Z,85.19
2019-04-26T02:44:37.154Z,84.31
2019-04-26T02:47:30.464Z,86.40
2019-04-26T02:50:08.111Z,87.32
2019-04-26T02:52:45.513Z,89.63
2019-04-26T02:55:36.853Z,89.29
2019-04-26T02:58:02.576Z,92.11
2019-04-26T03:00:32.184Z,91.49
2019-04-26T03:03:04.622Z,91.41
2019-04-26T03:05:37.470Z,89.88
2019-04-26T03:08:08.899Z,92.11
2019-04-26T03:10:40.634Z,92.32
2019-04-26T03:13:12.972Z,92.66
2019-04-26T03:15:52.337Z,93.38
2019-04-26T03:18:41.533Z,94.86
2019-04-26T03:21:40.490Z,90.04
2019-04-26T03:24:37.232Z,89.21
2019-04-26T03:27:18.945Z,88.65
2019-04-26T03:30:19.309Z,91.44
2019-04-26T03:32:55.713Z,93.68
2019-04-26T03:35:57.071Z,95.19
2019-04-26T03:38:38.266Z,97.31
2019-04-26T03:41:21.707Z,94.65
2019-04-26T03:43:59.455Z,94.44
2019-04-26T03:46:33.589Z,98.47
2019-04-26T03:49:06.735Z,98.06
2019-04-26T03:51:39.610Z,96.82
2019-04-26T03:54:24.086Z,93.83
2019-04-26T03:56:59.990Z,97.59
2019-04-26T03:59:33.282Z,99.39
2019-04-26T04:02:11.823Z,96.19
2019-04-26T04:04:45.363Z,92.43
2019-04-26T04:07:17.167Z,95.39
2019-04-26T04:09:48.889Z,100.00
2019-04-26T04:12:32.429Z,96.68
2019-04-26T04:15:37.938Z,97.84
2019-04-26T04:18:10.814Z,96.10
2019-04-26T04:20:53.332Z,93.64
2019-04-26T04:23:33.994Z,97.19
2019-04-26T04:26:05.696Z,98.53
2019-04-26T04:28:49.967Z,100.00
2019-04-26T04:31:28.194Z,100.00
2019-04-26T04:34:18.943Z,98.55
2019-04-26T04:36:51.382Z,97.16
2019-04-26T04:39:28.828Z,98.31
2019-04-26T04:42:23.094Z,99.51
2019-04-26T04:45:23.510Z,100.00
2019-04-26T04:48:19.016Z,100.00
2019-04-26T04:51:13.310Z,100.00
2019-04-26T04:53:54.210Z,100.00
2019-04-26T04:56:54.513Z,100.00
2019-04-26T04:59:28.799Z,100.00
2019-04-26T05:02:17.414Z,100.00
2019-04-26T05:05:23.454Z,100.00
2019-04-26T05:08:07.085Z,100.00
2019-04-26T05:10:42.059Z,100.00
2019-04-26T05:13:28.202Z,100.00
2019-04-26T05:16:32.979Z,100.00
2019-04-26T05:19:27.333Z,100.00
2019-04-26T05:22:04.981Z,100.00
2019-04-26T05:24:55.359Z,100.00
2019-04-26T05:27:48.480Z,100.00
2019-04-26T05:30:36.581Z,100.00
2019-04-26T05:33:17.429Z,100.00
2019-04-26T05:36:10.385Z,100.00
2019-04-26T05:38:42.206Z,100.00
2019-04-26T05:41:49.610Z,100.00
2019-04-26T05:44:45.536Z,100.00
2019-04-26T05:47:33.400Z,100.00
2019-04-26T05:50:21.657Z,100.00
2019-04-26T05:53:44.581Z,100.00
2019-04-26T05:56:20.642Z,100.00
2019-04-26T05:59:10.252Z,100.00
2019-04-26T06:01:52.053Z,100.00
2019-04-26T06:04:26.074Z,100.00
2019-04-26T06:07:36.979Z,100.00
2019-04-26T06:10:19.085Z,100.00
2019-04-26T06:13:20.203Z,100.00
2019-04-26T06:16:22.002Z,100.00
2019-04-26T06:19:16.708Z,100.00
2019-04-26T06:22:05.003Z,100.00
2019-04-26T06:24:36.713Z,100.00
2019-04-26T06:27:35.498Z,100.00
2019-04-26T06:30:12.814Z,100.00
2019-04-26T06:32:56.155Z,100.00
2019-04-26T06:35:21.499Z,100.00
2019-04-26T06:38:15.663Z,100.00
2019-04-26T06:41:02.655Z,100.00
2019-04-26T06:43:35.616Z,97.89
2019-04-26T06:46:11.759Z,100.00
2019-04-26T06:48:49.546Z,100.00
2019-04-26T06:51:25.183Z,100.00
2019-04-26T06:54:19.540Z,97.81
2019-04-26T06:57:14.880Z,100.00
2019-04-26T06:59:51.635Z,100.00
2019-04-26T07:02:38.227Z,99.44
2019-04-26T07:05:22.080Z,100.00
2019-04-26T07:08:19.829Z,100.00
2019-04-26T07:11:11.749Z,100.00
2019-04-26T07:14:06.870Z,100.00
2019-04-26T07:16:54.973Z,100.00
2019-04-26T07:20:04.288Z,100.00
2019-04-26T07:23:10.834Z,98.67
2019-04-26T07:25:53.118Z,95.11
2019-04-26T07:28:46.682Z,94.12
2019-04-26T07:31:29.700Z,95.70
2019-04-26T07:34:09.463Z,91.92
2019-04-26T07:36:53.164Z,88.50
2019-04-26T07:39:38.217Z,84.39
2019-04-26T07:42:35.514Z,84.11
2019-04-26T07:45:25.071Z,83.96
2019-04-26T07:48:19.288Z,83.99
2019-04-26T07:51:16.659Z,70.21
2019-04-26T07:53:58.301Z,68.58
2019-04-26T07:56:42.422Z,63.50
2019-04-26T07:59:30.896Z,58.01
2019-04-26T08:02:29.282Z,60.20
2019-04-26T08:05:09.431Z,61.25
2019-04-26T08:07:43.954Z,55.52
2019-04-26T08:10:20.216Z,61.07
2019-04-26T08:12:55.006Z,59.45
2019-04-26T08:15:40.357Z,65.28
2019-04-26T08:18:11.756Z,63.55
2019-04-26T08:20:45.049Z,55.34
2019-04-26T08:23:37.333Z,60.50
2019-04-26T08:25:48.722Z,55.39
2019-04-26T08:28:19.040Z,57.79
2019-04-26T08:30:50.273Z,57.29
2019-04-26T08:33:23.672Z,55.53
2019-04-26T08:35:54.102Z,58.36
2019-04-26T08:38:23.350Z,59.79
2019-04-26T08:40:53.166Z,58.21
2019-04-26T08:43:33.124Z,56.81
2019-04-26T08:46:23.737Z,55.02
2019-04-26T08:48:58.128Z,57.05
2019-04-26T08:51:28.815Z,57.50
2019-04-26T08:53:59.976Z,58.39
2019-04-26T08:56:43.335Z,56.17
2019-04-26T08:59:28.159Z,55.79
2019-04-26T09:02:05.047Z,52.75
2019-04-26T09:04:53.250Z,50.55
2019-04-26T09:07:31.580Z,52.53
2019-04-26T09:10:10.788Z,54.43
2019-04-26T09:12:34.568Z,54.42
2019-04-26T09:15:10.730Z,56.86
2019-04-26T09:17:39.359Z,51.98
2019-04-26T09:20:09.616Z,51.52
2019-04-26T09:22:43.255Z,50.91
2019-04-26T09:25:13.571Z,51.65
2019-04-26T09:27:53.614Z,54.74
2019-04-26T09:30:34.003Z,50.64
2019-04-26T09:33:03.034Z,55.07
2019-04-26T09:35:32.827Z,55.27
2019-04-26T09:38:02.359Z,51.89
2019-04-26T09:40:32.594Z,50.81
2019-04-26T09:43:16.691Z,54.52
2019-04-26T09:46:03.204Z,51.58
2019-04-26T09:48:33.482Z,53.30
2019-04-26T09:51:03.306Z,53.70
2019-04-26T09:53:31.960Z,52.36
2019-04-26T09:56:00.712Z,54.95
2019-04-26T09:58:30.823Z,52.72
2019-04-26T10:00:59.964Z,51.81
2019-04-26T10:03:28.600Z,54.18
2019-04-26T10:05:57.310Z,51.67
2019-04-26T10:08:26.040Z,52.82
2019-04-26T10:10:57.296Z,51.77
2019-04-26T10:13:29.817Z,55.24
2019-04-26T10:16:02.543Z,51.51
2019-04-26T10:18:31.065Z,53.82
2019-04-26T10:21:01.472Z,52.10
2019-04-26T10:23:30.168Z,53.30
2019-04-26T10:25:58.835Z,52.16
2019-04-26T10:28:27.575Z,53.92
2019-04-26T10:30:56.277Z,54.45
2019-04-26T10:33:28.826Z,55.66
2019-04-26T10:35:57.944Z,54.51
2019-04-26T10:38:27.102Z,52.36
2019-04-26T10:40:55.752Z,53.49
2019-04-26T10:43:24.370Z,53.06
2019-04-26T10:45:54.063Z,50.79
2019-04-26T10:48:25.711Z,51.59
2019-04-26T10:50:53.904Z,51.45
2019-04-26T10:53:25.656Z,52.07
2019-04-26T10:56:12.616Z,49.72
2019-04-26T10:58:45.731Z,52.29
2019-04-26T11:01:16.174Z,51.16
2019-04-26T11:03:45.306Z,50.46
2019-04-26T11:06:13.991Z,51.10
2019-04-26T11:08:45.194Z,49.17
2019-04-26T11:11:14.258Z,53.72
2019-04-26T11:13:42.921Z,52.63
2019-04-26T11:16:11.735Z,53.33
2019-04-26T11:18:42.518Z,50.65
2019-04-26T11:21:10.890Z,49.96
2019-04-26T11:23:45.011Z,51.29
2019-04-26T11:26:11.472Z,52.60
2019-04-26T11:28:42.005Z,48.92
2019-04-26T11:31:10.639Z,51.63
2019-04-26T11:33:44.681Z,49.63
2019-04-26T11:36:09.771Z,50.40
2019-04-26T11:38:39.109Z,49.79
2019-04-26T11:41:07.972Z,50.02
2019-04-26T11:43:38.817Z,48.96
2019-04-26T11:46:07.079Z,49.57
2019-04-26T11:48:35.890Z,46.22
2019-04-26T11:51:04.540Z,46.76
2019-04-26T11:53:33.653Z,46.69
2019-04-26T11:56:04.436Z,49.49
2019-04-26T11:58:33.037Z,45.89
2019-04-26T12:01:03.250Z,46.88
2019-04-26T12:03:31.983Z,45.45
2019-04-26T12:06:02.234Z,44.20
2019-04-26T12:08:32.407Z,44.93
2019-04-26T12:11:01.089Z,45.13
2019-04-26T12:13:30.580Z,45.68
2019-04-26T12:15:59.299Z,43.69
2019-04-26T12:18:28.060Z,43.28
2019-04-26T12:20:57.128Z,42.27
2019-04-26T12:23:27.187Z,42.79
2019-04-26T12:25:56.713Z,40.31
2019-04-26T12:28:25.760Z,41.43
2019-04-26T12:30:58.627Z,42.77
2019-04-26T12:33:25.150Z,42.50
2019-04-26T12:35:57.205Z,40.26
2019-04-26T12:38:28.353Z,42.44
2019-04-26T12:40:54.967Z,42.58
2019-04-26T12:43:24.566Z,42.20
2019-04-26T12:45:55.563Z,41.83
2019-04-26T12:48:26.045Z,42.92
2019-04-26T12:50:54.782Z,44.21
2019-04-26T12:53:26.760Z,42.16
2019-04-26T12:55:58.126Z,43.09
2019-04-26T12:58:24.273Z,45.39
2019-04-26T13:00:54.525Z,44.44
2019-04-26T13:03:24.863Z,44.17
2019-04-26T13:05:58.235Z,41.27
2019-04-26T13:08:24.429Z,40.55
2019-04-26T13:11:00.758Z,41.29
2019-04-26T13:13:33.882Z,37.17
2019-04-26T13:16:21.544Z,38.15
2019-04-26T13:18:50.732Z,38.46
2019-04-26T13:21:19.357Z,38.77
2019-04-26T13:23:49.094Z,37.86
2019-04-26T13:26:17.816Z,37.09
2019-04-26T13:28:46.506Z,36.26
2019-04-26T13:31:15.228Z,35.33
2019-04-26T13:33:45.437Z,37.00
2019-04-26T13:36:14.531Z,36.48
2019-04-26T13:38:45.065Z,37.21
2019-04-26T13:41:13.957Z,37.98
2019-04-26T13:43:44.816Z,37.19
2019-04-26T13:46:24.215Z,36.57
2019-04-26T13:48:57.914Z,35.30
2019-04-26T13:51:28.234Z,34.77
2019-04-26T13:53:56.943Z,35.03
2019-04-26T13:56:25.591Z,36.26
2019-04-26T13:58:58.161Z,35.52
2019-04-26T14:01:24.897Z,37.71
2019-04-26T14:03:54.473Z,38.23
2019-04-26T14:06:23.351Z,40.16
2019-04-26T14:08:53.986Z,39.87
2019-04-26T14:11:28.026Z,40.13
2019-04-26T14:13:55.403Z,39.47
2019-04-26T14:16:23.762Z,40.11
2019-04-26T14:18:53.617Z,42.63
2019-04-26T14:21:22.411Z,41.47
2019-04-26T14:23:58.367Z,42.26
2019-04-26T14:26:28.706Z,42.07
2019-04-26T14:28:59.445Z,43.25
2019-04-26T14:31:28.933Z,42.36
2019-04-26T14:34:01.309Z,44.35
2019-04-26T14:36:29.997Z,43.30
2019-04-26T14:39:06.103Z,44.29
2019-04-26T14:41:31.591Z,45.62
2019-04-26T14:44:14.457Z,44.99
2019-04-26T14:46:31.332Z,44.85
2019-04-26T14:49:03.958Z,44.15
2019-04-26T14:51:30.325Z,44.94
2019-04-26T14:53:59.068Z,45.59
2019-04-26T14:56:29.425Z,46.71
2019-04-26T14:59:01.714Z,46.97
2019-04-26T15:01:36.930Z,47.16
2019-04-26T15:04:23.262Z,48.43
2019-04-26T15:06:58.113Z,46.77
2019-04-26T15:09:33.253Z,47.35
2019-04-26T15:12:00.916Z,48.18
2019-04-26T15:14:24.769Z,51.32
2019-04-26T15:16:54.689Z,52.33
2019-04-26T15:19:23.364Z,51.65
2019-04-26T15:21:53.004Z,51.83
2019-04-26T15:24:22.645Z,54.40
2019-04-26T15:26:51.667Z,58.08
2019-04-26T15:29:26.840Z,57.78
2019-04-26T15:31:53.634Z,60.56
2019-04-26T15:34:26.608Z,65.29
2019-04-26T15:36:54.370Z,61.46
2019-04-26T15:39:25.204Z,62.59
2019-04-26T15:42:10.973Z,65.34
2019-04-26T15:45:01.924Z,64.82
2019-04-26T15:47:42.266Z,63.43
2019-04-26T15:50:13.437Z,66.68
2019-04-26T15:52:43.774Z,65.03
2019-04-26T15:55:13.379Z,65.74
2019-04-26T15:57:44.862Z,67.37
2019-04-26T16:00:14.372Z,67.31
2019-04-26T16:02:43.021Z,68.15
2019-04-26T16:05:13.442Z,69.81
2019-04-26T16:07:42.986Z,71.46
2019-04-26T16:10:14.188Z,72.97
2019-04-26T16:12:44.405Z,71.23
2019-04-26T16:15:14.881Z,72.93
2019-04-26T16:17:43.580Z,72.49
2019-04-26T16:20:13.639Z,74.29
2019-04-26T16:22:43.043Z,77.65
2019-04-26T16:25:12.776Z,75.69
2019-04-26T16:27:43.111Z,76.34
2019-04-26T16:30:17.843Z,77.31
2019-04-26T16:32:58.932Z,79.58
2019-04-26T16:35:28.608Z,79.48
2019-04-26T16:38:00.151Z,80.76
2019-04-26T16:40:28.958Z,82.20
2019-04-26T16:42:59.787Z,83.43
2019-04-26T16:45:28.687Z,79.87
2019-04-26T16:47:57.512Z,82.67
2019-04-26T16:50:31.440Z,85.16
2019-04-26T16:52:56.707Z,83.36
2019-04-26T16:55:25.398Z,88.80
2019-04-26T16:57:58.045Z,87.03
2019-04-26T17:00:47.225Z,88.22
2019-04-26T17:03:02.715Z,87.67
2019-04-26T17:05:45.443Z,93.36
2019-04-26T17:07:58.846Z,100.00
2019-04-26T17:10:27.057Z,100.00
2019-04-26T17:12:55.891Z,100.00
2019-04-26T17:15:24.681Z,100.00
2019-04-26T17:17:54.060Z,100.00
2019-04-26T17:20:23.290Z,100.00
2019-04-26T17:22:59.401Z,100.00
2019-04-26T17:25:32.637Z,100.00
2019-04-26T17:28:03.306Z,100.00
2019-04-26T17:30:40.829Z,100.00
2019-04-26T17:33:05.850Z,100.00
2019-04-26T17:35:36.619Z,100.00
2019-04-26T17:38:06.141Z,100.00
2019-04-26T17:40:39.182Z,100.00
2019-04-26T17:43:09.705Z,100.00
2019-04-26T17:45:40.832Z,100.00
2019-04-26T17:48:12.860Z,100.00
2019-04-26T17:50:42.371Z,100.00
2019-04-26T17:53:16.142Z,100.00
2019-04-26T17:55:45.849Z,100.00
2019-04-26T17:58:17.820Z,100.00
2019-04-26T18:00:47.617Z,100.00
2019-04-26T18:03:17.047Z,100.00
2019-04-26T18:05:56.704Z,100.00
2019-04-26T18:08:36.047Z,100.00
2019-04-26T18:10:49.188Z,100.00
2019-04-26T18:13:21.400Z,100.00
2019-04-26T18:15:50.050Z,100.00
2019-04-26T18:18:23.355Z,100.00
2019-04-26T18:21:13.008Z,100.00
2019-04-26T18:23:40.337Z,100.00
2019-04-26T18:26:09.567Z,100.00
2019-04-26T18:28:40.128Z,100.00
2019-04-26T18:31:14.557Z,100.00
2019-04-26T18:33:42.574Z,100.00
2019-04-26T18:36:14.553Z,100.00
2019-04-26T18:38:48.490Z,100.00
2019-04-26T18:41:15.760Z,100.00
2019-04-26T18:43:46.392Z,100.00
2019-04-26T18:46:20.407Z,100.00
2019-04-26T18:48:49.548Z,100.00
2019-04-26T18:51:18.651Z,100.00
2019-04-26T18:53:53.197Z,100.00
2019-04-26T18:56:23.960Z,100.00
2019-04-26T18:58:55.669Z,100.00
2019-04-26T19:01:24.482Z,100.00
2019-04-26T19:03:54.146Z,100.00
2019-04-26T19:06:29.688Z,100.00
2019-04-26T19:08:57.637Z,100.00
2019-04-26T19:11:25.086Z,100.00
2019-04-26T19:14:12.984Z,100.00
2019-04-26T19:16:40.700Z,100.00
2019-04-26T19:19:22.792Z,100.00
2019-04-26T19:21:52.636Z,100.00
2019-04-26T19:24:23.059Z,100.00
2019-04-26T19:26:53.404Z,100.00
2019-04-26T19:29:31.314Z,100.00
2019-04-26T19:31:56.588Z,100.00
2019-04-26T19:34:26.093Z,100.00
2019-04-26T19:36:59.713Z,100.00
2019-04-26T19:39:32.254Z,100.00
2019-04-26T19:41:58.668Z,100.00
2019-04-26T19:44:28.423Z,100.00
2019-04-26T19:47:13.970Z,100.00
2019-04-26T19:49:44.176Z,100.00
2019-04-26T19:52:24.645Z,100.00
2019-04-26T19:55:12.283Z,100.00
2019-04-26T19:58:01.996Z,100.00
2019-04-26T20:00:32.214Z,100.00
2019-04-26T20:03:01.921Z,100.00
2019-04-26T20:05:32.065Z,100.00
2019-04-26T20:08:02.934Z,100.00
2019-04-26T20:10:40.205Z,100.00
2019-04-26T20:13:07.517Z,100.00
2019-04-26T20:15:36.574Z,100.00
2019-04-26T20:18:05.805Z,100.00
2019-04-26T20:20:36.263Z,100.00
2019-04-26T20:23:07.801Z,100.00
2019-04-26T20:25:36.150Z,100.00
2019-04-26T20:28:06.584Z,100.00
2019-04-26T20:30:46.060Z,100.00
2019-04-26T20:33:15.807Z,100.00
2019-04-26T20:35:45.017Z,100.00
2019-04-26T20:38:13.802Z,100.00
2019-04-26T20:40:43.442Z,100.00
2019-04-26T20:43:23.786Z,100.00
2019-04-26T20:46:07.996Z,100.00
2019-04-26T20:48:16.755Z,100.00
2019-04-26T20:50:45.872Z,100.00
2019-04-26T20:53:15.180Z,100.00
2019-04-26T20:55:43.847Z,100.00
2019-04-26T20:58:13.611Z,100.00
2019-04-26T21:00:53.769Z,100.00
2019-04-26T21:03:22.735Z,100.00
2019-04-26T21:05:46.422Z,100.00
2019-04-26T21:08:14.319Z,100.00
2019-04-26T21:10:43.006Z,100.00
2019-04-26T21:13:12.197Z,100.00
2019-04-26T21:15:53.493Z,100.00
2019-04-26T21:18:12.510Z,100.00
2019-04-26T21:20:42.521Z,100.00
2019-04-26T21:23:13.231Z,100.00
2019-04-26T21:26:02.784Z,100.00
2019-04-26T21:28:38.057Z,100.00
2019-04-26T21:31:09.110Z,100.00
2019-04-26T21:33:48.601Z,100.00
2019-04-26T21:36:36.329Z,100.00
2019-04-26T21:39:07.313Z,100.00
2019-04-26T21:41:40.329Z,100.00
2019-04-26T21:44:12.279Z,100.00
2019-04-26T21:46:39.340Z,100.00
2019-04-26T21:49:08.160Z,100.00
2019-04-26T21:51:36.958Z,100.00
2019-04-26T21:54:05.635Z,100.00
2019-04-26T21:56:34.418Z,100.00
2019-04-26T21:59:05.055Z,100.00
2019-04-26T22:01:34.453Z,100.00
2019-04-26T22:04:03.195Z,100.00
2019-04-26T22:06:33.473Z,100.00
2019-04-26T22:09:07.139Z,100.00
2019-04-26T22:11:35.847Z,100.00
2019-04-26T22:14:06.499Z,100.00
2019-04-26T22:16:53.381Z,100.00
2019-04-26T22:19:32.473Z,100.00
2019-04-26T22:22:07.923Z,100.00
2019-04-26T22:24:44.117Z,100.00
2019-04-26T22:27:13.373Z,100.00
2019-04-26T22:29:43.648Z,100.00
2019-04-26T22:32:17.760Z,100.00
2019-04-26T22:34:46.353Z,100.00
2019-04-26T22:37:28.800Z,100.00
2019-04-26T22:39:46.704Z,100.00
2019-04-26T22:42:16.102Z,100.00
2019-04-26T22:44:53.917Z,100.00
2019-04-26T22:47:40.887Z,100.00
2019-04-26T22:50:07.251Z,100.00
2019-04-26T22:52:35.936Z,100.00
2019-04-26T22:55:07.023Z,100.00
2019-04-26T22:57:35.976Z,100.00
2019-04-26T23:00:05.554Z,100.00
2019-04-26T23:02:34.265Z,100.00
2019-04-26T23:05:05.974Z,100.00
2019-04-26T23:07:35.124Z,100.00
2019-04-26T23:10:05.758Z,100.00
2019-04-26T23:12:36.887Z,100.00
2019-04-26T23:15:30.071Z,100.00
2019-04-26T23:18:03.639Z,100.00
2019-04-26T23:20:50.941Z,100.00
2019-04-26T23:23:19.877Z,100.00
2019-04-26T23:25:49.179Z,100.00
2019-04-26T23:28:18.000Z,100.00
2019-04-26T23:30:46.995Z,100.00
2019-04-26T23:33:15.705Z,100.00
2019-04-26T23:35:47.571Z,100.00
2019-04-26T23:38:15.479Z,100.00
2019-04-26T23:40:44.164Z,100.00
2019-04-26T23:43:13.047Z,100.00
2019-04-26T23:45:48.317Z,100.00
2019-04-26T23:48:13.371Z,100.00
2019-04-26T23:50:43.031Z,100.00
2019-04-26T23:53:11.794Z,100.00
2019-04-26T23:55:42.543Z,100.00
2019-04-26T23:58:13.837Z,100.00
